Time;durP1;ratioP1;P1;durP2;ratioP2;P2;SDS_P1;SDS_P2;PMS_P1;PMS_P2;Temp;Humidity;BMP_temperature;BMP_pressure;BME280_temperature;BME280_humidity;BME280_pressure;Samples;Min_cycle;Max_cycle;Signal;HPM_P1;HPM_P2
2022/09/23 00:00:36;;;;;;;0.10;0.10;;;;;;;;;;4939924;29;20065;-96
2022/09/23 00:03:04;;;;;;;0.10;0.10;;;;;;;;;;4923818;29;20082;-96
2022/09/23 00:05:33;;;;;;;0.10;0.10;;;;;;;;;;4924773;29;20042;-96
2022/09/23 00:07:59;;;;;;;0.10;0.10;;;;;;;;;;4939331;29;20051;-96
2022/09/23 00:26:33;;;;;;;0.10;0.10;;;;;;;;;;5225165;23;20133;-96
2022/09/23 00:29:04;;;;;;;0.10;0.10;;;;;;;;;;4941012;28;20043;-96
2022/09/23 00:31:33;;;;;;;0.10;0.10;;;;;;;;;;4913849;29;20050;-96
2022/09/23 00:34:06;;;;;;;0.10;0.10;;;;;;;;;;4938339;29;20126;-96
2022/09/23 00:36:39;;;;;;;0.10;0.10;;;;;;;;;;4921322;29;20376;-96
2022/09/23 00:39:25;;;;;;;0.10;0.10;;;;;;;;;;4926495;29;20048;-96
2022/09/23 00:41:53;;;;;;;0.10;0.10;;;;;;;;;;4937541;29;20055;-96
2022/09/23 00:44:40;;;;;;;0.10;0.10;;;;;;;;;;4922143;29;20086;-96
2022/09/23 01:11:32;;;;;;;0.10;0.10;;;;;;;;;;5294355;23;20135;-96
2022/09/23 01:14:18;;;;;;;0.10;0.10;;;;;;;;;;4935699;29;20492;-96
2022/09/23 01:16:47;;;;;;;0.10;0.10;;;;;;;;;;4935639;29;20495;-96
2022/09/23 01:19:19;;;;;;;0.10;0.10;;;;;;;;;;4950972;29;20118;-96
2022/09/23 01:55:24;;;;;;;0.10;0.10;;;;;;;;;;5026053;23;20040;-96
2022/09/23 01:58:11;;;;;;;0.25;0.25;;;;;;;;;;4927330;29;20079;-96
2022/09/23 02:00:51;;;;;;;0.10;0.10;;;;;;;;;;4969542;28;20043;-96
2022/09/23 02:03:19;;;;;;;0.10;0.10;;;;;;;;;;4922673;29;20499;-96
2022/09/23 02:05:49;;;;;;;0.10;0.10;;;;;;;;;;4923050;29;20115;-96
2022/09/23 02:08:24;;;;;;;0.10;0.10;;;;;;;;;;4925929;29;20039;-96
2022/09/23 02:11:06;;;;;;;0.10;0.10;;;;;;;;;;4951800;29;20050;-96
2022/09/23 02:13:50;;;;;;;0.10;0.10;;;;;;;;;;4927179;29;20559;-96
2022/09/23 02:16:28;;;;;;;0.10;0.10;;;;;;;;;;4940526;29;20075;-94
2022/09/23 02:19:01;;;;;;;0.10;0.10;;;;;;;;;;4922702;29;20131;-94
2022/09/23 02:21:59;;;;;;;0.00;0.00;;;;;;;;;;4922525;29;20043;-96
2022/09/23 02:28:12;;;;;;;0.10;0.10;;;;;;;;;;4845002;29;20057;-96
2022/09/23 02:30:42;;;;;;;0.10;0.10;;;;;;;;;;4939604;29;20043;-96
2022/09/23 02:33:10;;;;;;;0.10;0.10;;;;;;;;;;4906205;29;20502;-95
2022/09/23 02:41:08;;;;;;;0.10;0.10;;;;;;;;;;5018201;23;20139;-96
2022/09/23 02:43:53;;;;;;;0.20;0.20;;;;;;;;;;4923600;29;20338;-96
2022/09/23 02:46:22;;;;;;;0.10;0.10;;;;;;;;;;4953280;29;20062;-96
2022/09/23 02:48:59;;;;;;;0.10;0.10;;;;;;;;;;4921957;29;20408;-96
2022/09/23 02:51:27;;;;;;;0.10;0.10;;;;;;;;;;4922092;29;20039;-96
2022/09/23 02:53:59;;;;;;;0.10;0.10;;;;;;;;;;4938157;29;20043;-96
2022/09/23 02:56:25;;;;;;;0.10;0.10;;;;;;;;;;4938228;29;20130;-96
2022/09/23 02:58:53;;;;;;;0.10;0.10;;;;;;;;;;4921583;29;20047;-94
2022/09/23 03:01:38;;;;;;;0.10;0.10;;;;;;;;;;4937036;29;20051;-94
2022/09/23 03:04:07;;;;;;;0.10;0.10;;;;;;;;;;4921115;29;20059;-95
2022/09/23 03:06:43;;;;;;;0.10;0.10;;;;;;;;;;4937409;29;20062;-93
2022/09/23 03:09:10;;;;;;;0.10;0.10;;;;;;;;;;4921118;29;20099;-96
2022/09/23 03:11:37;;;;;;;0.20;0.20;;;;;;;;;;4921495;29;20044;-94
2022/09/23 03:14:06;;;;;;;0.10;0.10;;;;;;;;;;4921617;29;20044;-94
2022/09/23 03:16:39;;;;;;;0.10;0.10;;;;;;;;;;4937083;29;20040;-94
2022/09/23 03:19:41;;;;;;;0.20;0.20;;;;;;;;;;4938855;29;20051;-95
2022/09/23 03:22:08;;;;;;;0.10;0.10;;;;;;;;;;4832200;29;20049;-96
2022/09/23 03:24:35;;;;;;;0.10;0.10;;;;;;;;;;4904545;29;20134;-96
2022/09/23 03:27:03;;;;;;;0.10;0.10;;;;;;;;;;4921707;29;20538;-95
2022/09/23 03:29:29;;;;;;;0.10;0.10;;;;;;;;;;4920994;29;20423;-95
2022/09/23 03:31:55;;;;;;;0.10;0.10;;;;;;;;;;4920631;29;20055;-94
2022/09/23 03:34:23;;;;;;;0.10;0.10;;;;;;;;;;4921435;29;20082;-95
2022/09/23 03:37:09;;;;;;;0.10;0.10;;;;;;;;;;4920639;29;20257;-96
2022/09/23 03:39:39;;;;;;;0.10;0.10;;;;;;;;;;4936413;29;20035;-96
2022/09/23 03:42:22;;;;;;;0.10;0.10;;;;;;;;;;4920819;29;20048;-96
2022/09/23 03:44:49;;;;;;;0.10;0.10;;;;;;;;;;4921142;29;20072;-96
2022/09/23 03:47:15;;;;;;;0.10;0.10;;;;;;;;;;4921058;29;20099;-95
2022/09/23 03:49:47;;;;;;;0.10;0.10;;;;;;;;;;4920791;29;20134;-95
2022/09/23 03:52:13;;;;;;;0.10;0.10;;;;;;;;;;4921453;29;20040;-96
2022/09/23 03:54:42;;;;;;;0.10;0.10;;;;;;;;;;4921218;29;20399;-96
2022/09/23 03:57:10;;;;;;;0.10;0.10;;;;;;;;;;4921565;29;20395;-96
2022/09/23 03:59:37;;;;;;;0.10;0.10;;;;;;;;;;4937126;29;20044;-96
2022/09/23 04:02:06;;;;;;;0.10;0.10;;;;;;;;;;4921357;29;20043;-96
2022/09/23 04:17:31;;;;;;;0.10;0.10;;;;;;;;;;4954545;29;20050;-96
2022/09/23 04:19:57;;;;;;;0.10;0.10;;;;;;;;;;4924192;29;20043;-96
2022/09/23 04:22:23;;;;;;;0.10;0.10;;;;;;;;;;4921324;29;20459;-96
2022/09/23 04:24:50;;;;;;;0.10;0.10;;;;;;;;;;4920259;29;20075;-95
2022/09/23 04:27:16;;;;;;;0.90;0.43;;;;;;;;;;4919923;29;20048;-96
2022/09/23 04:29:42;;;;;;;0.10;0.10;;;;;;;;;;4919629;29;20490;-95
2022/09/23 04:32:09;;;;;;;0.10;0.10;;;;;;;;;;4920337;29;20044;-95
2022/09/23 04:34:35;;;;;;;0.10;0.10;;;;;;;;;;4920225;29;20035;-96
2022/09/23 04:37:01;;;;;;;0.10;0.10;;;;;;;;;;4919916;29;20039;-95
2022/09/23 04:39:27;;;;;;;0.10;0.10;;;;;;;;;;4919387;29;20498;-95
2022/09/23 04:41:53;;;;;;;0.20;0.20;;;;;;;;;;4920015;29;20133;-96
2022/09/23 04:44:30;;;;;;;0.10;0.10;;;;;;;;;;4920726;29;20090;-96
2022/09/23 04:47:03;;;;;;;0.10;0.10;;;;;;;;;;4936936;29;20048;-96
2022/09/23 04:52:17;;;;;;;0.10;0.10;;;;;;;;;;5127953;23;20059;-95
2022/09/23 05:20:55;;;;;;;0.10;0.10;;;;;;;;;;5680364;23;20055;-95
2022/09/23 05:23:44;;;;;;;0.20;0.20;;;;;;;;;;4924380;29;20090;-96
2022/09/23 05:26:28;;;;;;;0.10;0.10;;;;;;;;;;4941314;29;20044;-95
2022/09/23 05:29:03;;;;;;;0.10;0.10;;;;;;;;;;4938252;29;20114;-94
2022/09/23 05:31:29;;;;;;;0.10;0.10;;;;;;;;;;4928700;29;20051;-95
2022/09/23 05:33:56;;;;;;;0.10;0.10;;;;;;;;;;4918985;29;20051;-95
2022/09/23 05:36:23;;;;;;;0.10;0.10;;;;;;;;;;4920227;29;20394;-95
2022/09/23 05:38:50;;;;;;;0.10;0.10;;;;;;;;;;4919209;29;20046;-94
2022/09/23 05:41:16;;;;;;;0.10;0.10;;;;;;;;;;4919069;29;20095;-94
2022/09/23 05:43:42;;;;;;;0.10;0.10;;;;;;;;;;4918871;29;20046;-94
2022/09/23 05:46:12;;;;;;;0.10;0.10;;;;;;;;;;4919259;29;20051;-94
2022/09/23 05:48:38;;;;;;;0.10;0.10;;;;;;;;;;4918610;29;20418;-93
2022/09/23 05:51:07;;;;;;;2.35;2.15;;;;;;;;;;4919423;29;20039;-94
2022/09/23 05:53:34;;;;;;;0.10;0.10;;;;;;;;;;4919619;29;20059;-94
2022/09/23 05:56:00;;;;;;;0.10;0.10;;;;;;;;;;4919105;29;20107;-94
2022/09/23 05:58:26;;;;;;;0.10;0.10;;;;;;;;;;4919086;29;20169;-94
2022/09/23 06:00:55;;;;;;;0.10;0.10;;;;;;;;;;4918456;29;20059;-95
2022/09/23 06:03:35;;;;;;;0.20;0.20;;;;;;;;;;4919738;29;20089;-96
2022/09/23 06:06:04;;;;;;;0.10;0.10;;;;;;;;;;4935457;29;20130;-95
2022/09/23 06:08:34;;;;;;;0.10;0.10;;;;;;;;;;4935463;29;20156;-96
2022/09/23 06:11:06;;;;;;;0.10;0.10;;;;;;;;;;4919743;29;20043;-93
2022/09/23 06:13:38;;;;;;;0.10;0.10;;;;;;;;;;4934384;29;20391;-94
2022/09/23 06:16:11;;;;;;;0.10;0.10;;;;;;;;;;4934866;29;20048;-95
2022/09/23 06:18:38;;;;;;;0.10;0.10;;;;;;;;;;4918979;29;20196;-94
2022/09/23 06:21:04;;;;;;;0.10;0.10;;;;;;;;;;4918498;29;20056;-93
2022/09/23 06:23:30;;;;;;;0.10;0.10;;;;;;;;;;4917928;29;20051;-93
2022/09/23 06:26:06;;;;;;;0.20;0.20;;;;;;;;;;4919340;29;20554;-95
2022/09/23 06:28:36;;;;;;;0.10;0.10;;;;;;;;;;4935897;29;20047;-94
2022/09/23 06:31:03;;;;;;;0.10;0.10;;;;;;;;;;4938124;29;20058;-95
2022/09/23 06:33:29;;;;;;;0.10;0.10;;;;;;;;;;4921882;29;20471;-95
2022/09/23 06:35:59;;;;;;;0.10;0.10;;;;;;;;;;4924349;29;20042;-94
2022/09/23 06:38:25;;;;;;;0.10;0.10;;;;;;;;;;4923244;29;20039;-96
2022/09/23 06:40:55;;;;;;;0.10;0.10;;;;;;;;;;4923228;29;20044;-94
2022/09/23 07:14:58;;;;;;;0.10;0.10;;;;;;;;;;4900287;29;20062;-94
2022/09/23 07:17:24;;;;;;;0.10;0.10;;;;;;;;;;4897731;29;20031;-94
2022/09/23 07:20:00;;;;;;;0.10;0.10;;;;;;;;;;4893127;29;20044;-94
2022/09/23 07:22:27;;;;;;;0.10;0.10;;;;;;;;;;4890900;29;20042;-94
2022/09/23 07:24:56;;;;;;;0.10;0.10;;;;;;;;;;4907358;29;20044;-95
2022/09/23 07:31:02;;;;;;;0.10;0.10;;;;;;;;;;4905984;29;20040;-92
2022/09/23 07:33:31;;;;;;;0.20;0.20;;;;;;;;;;4886880;29;20052;-91
2022/09/23 07:35:57;;;;;;;0.10;0.10;;;;;;;;;;4870120;29;20138;-92
2022/09/23 07:38:28;;;;;;;0.10;0.10;;;;;;;;;;4901408;29;20250;-93
2022/09/23 07:40:54;;;;;;;0.10;0.10;;;;;;;;;;4899363;29;20130;-93
2022/09/23 07:43:28;;;;;;;0.20;0.20;;;;;;;;;;4901064;29;20126;-94
2022/09/23 07:45:54;;;;;;;0.10;0.10;;;;;;;;;;4900905;29;20040;-92
2022/09/23 07:48:23;;;;;;;0.10;0.10;;;;;;;;;;4901761;29;20127;-95
2022/09/23 07:50:49;;;;;;;0.10;0.10;;;;;;;;;;4901906;29;20044;-94
2022/09/23 07:53:15;;;;;;;0.10;0.10;;;;;;;;;;4901592;29;20076;-94
2022/09/23 07:55:41;;;;;;;0.10;0.10;;;;;;;;;;4901386;29;20044;-92
2022/09/23 08:19:47;;;;;;;0.10;0.10;;;;;;;;;;4953849;29;20044;-90
2022/09/23 08:22:15;;;;;;;0.10;0.10;;;;;;;;;;4891886;29;20047;-93
2022/09/23 08:24:41;;;;;;;0.10;0.10;;;;;;;;;;4904047;29;20051;-95
2022/09/23 08:27:19;;;;;;;0.10;0.10;;;;;;;;;;4904221;29;20047;-93
2022/09/23 08:29:45;;;;;;;0.10;0.10;;;;;;;;;;4919712;29;20525;-94
2022/09/23 08:32:11;;;;;;;0.10;0.10;;;;;;;;;;4903816;29;20040;-93
2022/09/23 08:34:37;;;;;;;0.10;0.10;;;;;;;;;;4903418;29;20040;-93
2022/09/23 08:37:23;;;;;;;0.10;0.10;;;;;;;;;;4904698;29;20044;-96
2022/09/23 08:39:49;;;;;;;0.10;0.10;;;;;;;;;;4919488;29;20043;-92
2022/09/23 08:42:22;;;;;;;0.10;0.10;;;;;;;;;;4902837;29;20043;-94
2022/09/23 08:44:48;;;;;;;0.10;0.10;;;;;;;;;;4903155;29;20043;-92
2022/09/23 08:47:28;;;;;;;0.10;0.10;;;;;;;;;;4918988;29;20043;-93
2022/09/23 08:50:05;;;;;;;0.10;0.10;;;;;;;;;;4902763;29;20039;-93
2022/09/23 08:52:33;;;;;;;0.10;0.10;;;;;;;;;;4902537;29;20467;-92
2022/09/23 08:55:00;;;;;;;0.10;0.10;;;;;;;;;;4902884;29;20066;-93
2022/09/23 08:57:42;;;;;;;0.10;0.10;;;;;;;;;;4902714;29;20043;-92
2022/09/23 09:00:18;;;;;;;0.10;0.10;;;;;;;;;;4902447;29;20500;-91
2022/09/23 09:02:44;;;;;;;0.10;0.10;;;;;;;;;;4903049;29;20399;-91
2022/09/23 09:05:11;;;;;;;0.10;0.10;;;;;;;;;;4905132;29;20153;-92
2022/09/23 09:07:38;;;;;;;0.10;0.10;;;;;;;;;;4903820;29;20047;-94
2022/09/23 09:10:05;;;;;;;0.10;0.10;;;;;;;;;;4903298;29;20044;-94
2022/09/23 09:12:43;;;;;;;0.10;0.10;;;;;;;;;;4919199;29;20051;-94
2022/09/23 09:15:12;;;;;;;0.10;0.10;;;;;;;;;;4922964;29;20039;-91
2022/09/23 09:17:58;;;;;;;0.13;0.13;;;;;;;;;;4918222;29;20214;-93
2022/09/23 09:20:40;;;;;;;0.10;0.10;;;;;;;;;;4919464;29;20039;-96
2022/09/23 09:23:12;;;;;;;0.10;0.10;;;;;;;;;;4903287;29;20039;-93
2022/09/23 09:25:43;;;;;;;0.10;0.10;;;;;;;;;;4918752;29;20047;-93
2022/09/23 09:28:20;;;;;;;0.10;0.10;;;;;;;;;;4903440;29;20043;-94
2022/09/23 09:30:50;;;;;;;0.10;0.10;;;;;;;;;;4918958;29;20538;-92
2022/09/23 09:33:27;;;;;;;0.10;0.10;;;;;;;;;;4904275;29;20048;-94
2022/09/23 09:35:59;;;;;;;0.10;0.10;;;;;;;;;;4903486;29;20047;-94
2022/09/23 09:38:26;;;;;;;0.10;0.10;;;;;;;;;;4903496;29;20442;-89
2022/09/23 09:40:52;;;;;;;0.10;0.10;;;;;;;;;;4901983;29;20082;-92
2022/09/23 09:43:25;;;;;;;0.10;0.10;;;;;;;;;;4902317;29;20402;-92
2022/09/23 09:46:03;;;;;;;0.20;0.20;;;;;;;;;;4902732;29;20390;-90
2022/09/23 09:48:36;;;;;;;0.10;0.10;;;;;;;;;;4901736;29;20134;-91
2022/09/23 09:51:21;;;;;;;0.10;0.10;;;;;;;;;;4901416;29;20055;-91
2022/09/23 09:53:50;;;;;;;0.10;0.10;;;;;;;;;;4917677;29;20043;-93
2022/09/23 09:56:16;;;;;;;0.10;0.10;;;;;;;;;;4886727;29;20040;-92
2022/09/23 09:58:46;;;;;;;0.10;0.10;;;;;;;;;;4901945;29;20050;-91
2022/09/23 10:01:19;;;;;;;0.10;0.10;;;;;;;;;;4901771;29;20399;-90
2022/09/23 10:03:51;;;;;;;0.10;0.10;;;;;;;;;;4921575;29;20052;-93
2022/09/23 10:06:19;;;;;;;0.10;0.10;;;;;;;;;;4906775;29;20043;-93
2022/09/23 10:09:03;;;;;;;0.10;0.10;;;;;;;;;;4921867;29;20130;-93
2022/09/23 10:11:29;;;;;;;0.10;0.10;;;;;;;;;;4921976;29;20086;-91
2022/09/23 10:14:29;;;;;;;0.10;0.10;;;;;;;;;;4905607;29;20051;-92
2022/09/23 10:17:04;;;;;;;0.10;0.10;;;;;;;;;;4864930;29;20048;-90
2022/09/23 10:19:30;;;;;;;0.10;0.10;;;;;;;;;;4904968;29;20534;-89
2022/09/23 10:21:59;;;;;;;0.10;0.10;;;;;;;;;;4904944;29;20058;-88
2022/09/23 10:24:36;;;;;;;0.10;0.10;;;;;;;;;;4905590;29;20083;-89
2022/09/23 10:27:06;;;;;;;0.10;0.10;;;;;;;;;;4905589;29;20044;-91
2022/09/23 10:29:33;;;;;;;0.10;0.10;;;;;;;;;;4905386;29;20442;-91
2022/09/23 10:32:21;;;;;;;0.10;0.10;;;;;;;;;;4904714;29;20047;-89
2022/09/23 10:34:51;;;;;;;0.10;0.10;;;;;;;;;;4920432;29;20270;-90
2022/09/23 10:37:18;;;;;;;0.10;0.10;;;;;;;;;;4905243;29;20047;-90
2022/09/23 10:48:23;;;;;;;0.10;0.10;;;;;;;;;;4920369;29;20079;-89
2022/09/23 10:50:50;;;;;;;0.10;0.10;;;;;;;;;;4904669;29;20439;-90
2022/09/23 10:53:21;;;;;;;0.10;0.10;;;;;;;;;;4904852;29;20138;-91
2022/09/23 10:56:09;;;;;;;0.10;0.10;;;;;;;;;;4920386;29;20061;-90
2022/09/23 10:58:46;;;;;;;0.10;0.10;;;;;;;;;;4920238;29;20126;-90
2022/09/23 11:01:18;;;;;;;0.10;0.10;;;;;;;;;;4904682;29;20449;-90
2022/09/23 11:03:56;;;;;;;0.10;0.10;;;;;;;;;;4921070;29;20043;-92
2022/09/23 11:06:28;;;;;;;0.10;0.10;;;;;;;;;;4889637;29;20056;-92
2022/09/23 11:08:54;;;;;;;0.10;0.10;;;;;;;;;;4920476;29;20150;-89
2022/09/23 11:11:26;;;;;;;0.10;0.10;;;;;;;;;;4919746;29;20515;-90
2022/09/23 11:14:05;;;;;;;0.10;0.10;;;;;;;;;;4919950;29;20071;-90
2022/09/23 11:16:32;;;;;;;0.10;0.10;;;;;;;;;;4904094;29;20074;-90
2022/09/23 11:22:53;;;;;;;0.10;0.10;;;;;;;;;;4937092;29;20056;-94
2022/09/23 11:25:41;;;;;;;0.10;0.10;;;;;;;;;;4923091;29;20047;-95
2022/09/23 11:28:28;;;;;;;0.10;0.10;;;;;;;;;;4922932;29;20419;-95
2022/09/23 11:33:49;;;;;;;0.10;0.10;;;;;;;;;;5976337;23;20525;-92
2022/09/23 11:36:44;;;;;;;0.10;0.10;;;;;;;;;;4959445;29;20058;-96
2022/09/23 11:39:22;;;;;;;0.10;0.10;;;;;;;;;;4955664;29;20090;-91
2022/09/23 11:41:54;;;;;;;0.10;0.10;;;;;;;;;;4925840;29;20055;-90
2022/09/23 11:44:23;;;;;;;0.22;0.22;;;;;;;;;;4919550;29;20487;-91
2022/09/23 11:47:00;;;;;;;0.10;0.10;;;;;;;;;;4919392;29;20044;-90
2022/09/23 11:49:30;;;;;;;0.10;0.10;;;;;;;;;;4919955;29;20039;-91
2022/09/23 11:52:06;;;;;;;0.10;0.10;;;;;;;;;;4920401;29;20106;-91
2022/09/23 11:54:51;;;;;;;0.10;0.10;;;;;;;;;;4934950;29;20047;-93
2022/09/23 11:57:23;;;;;;;0.10;0.10;;;;;;;;;;4900574;29;20123;-92
2022/09/23 11:59:51;;;;;;;0.10;0.10;;;;;;;;;;4885306;29;20054;-93
2022/09/23 12:02:22;;;;;;;0.10;0.10;;;;;;;;;;4884815;29;20053;-92
2022/09/23 12:05:07;;;;;;;0.10;0.10;;;;;;;;;;4887564;29;20047;-96
2022/09/23 12:39:44;;;;;;;0.32;0.32;;;;;;;;;;5228661;23;20503;-91
2022/09/23 12:42:17;;;;;;;0.10;0.10;;;;;;;;;;4907077;29;20051;-94
2022/09/23 13:25:46;;;;;;;0.55;0.55;;;;;;;;;;4961204;29;20086;-94
2022/09/23 13:28:23;;;;;;;0.10;0.10;;;;;;;;;;4933521;28;20046;-94
2022/09/23 13:30:59;;;;;;;0.10;0.10;;;;;;;;;;4925246;29;20066;-91
2022/09/23 13:33:39;;;;;;;0.10;0.10;;;;;;;;;;4927068;29;20036;-95
2022/09/23 13:36:09;;;;;;;0.20;0.20;;;;;;;;;;4926983;29;20067;-93
2022/09/23 13:38:35;;;;;;;0.10;0.10;;;;;;;;;;4930996;29;20028;-94
2022/09/23 13:41:03;;;;;;;0.10;0.10;;;;;;;;;;4930779;29;20111;-93
2022/09/23 13:43:40;;;;;;;0.10;0.10;;;;;;;;;;4931165;29;20036;-95
2022/09/23 13:46:12;;;;;;;0.10;0.10;;;;;;;;;;4931015;29;20059;-91
2022/09/23 13:48:38;;;;;;;0.10;0.10;;;;;;;;;;4913131;29;20065;-93
2022/09/23 13:51:08;;;;;;;0.10;0.10;;;;;;;;;;4906474;29;20459;-93
2022/09/23 13:53:35;;;;;;;0.20;0.20;;;;;;;;;;4906966;29;20032;-96
2022/09/23 13:56:02;;;;;;;0.10;0.10;;;;;;;;;;4911033;29;20050;-95
2022/09/23 13:58:29;;;;;;;0.20;0.20;;;;;;;;;;4906919;29;20050;-94
2022/09/23 14:00:57;;;;;;;0.10;0.10;;;;;;;;;;4905199;29;20051;-94
2022/09/23 14:03:33;;;;;;;0.10;0.10;;;;;;;;;;4891351;29;20082;-94
2022/09/23 14:06:02;;;;;;;0.10;0.10;;;;;;;;;;4906570;29;20063;-96
2022/09/23 14:08:28;;;;;;;0.10;0.10;;;;;;;;;;4894503;29;20031;-94
2022/09/23 14:10:58;;;;;;;0.10;0.10;;;;;;;;;;4891714;29;20071;-92
2022/09/23 14:13:25;;;;;;;0.10;0.10;;;;;;;;;;4921166;29;20117;-91
2022/09/23 14:15:52;;;;;;;0.10;0.10;;;;;;;;;;4889298;29;20047;-91
2022/09/23 14:18:21;;;;;;;0.10;0.10;;;;;;;;;;4889638;29;20040;-91
2022/09/23 14:20:49;;;;;;;0.10;0.10;;;;;;;;;;4889710;29;20048;-90
2022/09/23 14:23:15;;;;;;;0.10;0.10;;;;;;;;;;4889709;29;20055;-88
2022/09/23 14:25:43;;;;;;;0.10;0.10;;;;;;;;;;4904914;29;20059;-86
2022/09/23 14:28:11;;;;;;;0.10;0.10;;;;;;;;;;4920497;29;20043;-89
2022/09/23 14:30:37;;;;;;;0.10;0.10;;;;;;;;;;4889379;29;20094;-90
2022/09/23 14:33:08;;;;;;;0.20;0.20;;;;;;;;;;4904921;29;20060;-91
2022/09/23 14:35:45;;;;;;;0.10;0.10;;;;;;;;;;4920810;29;20051;-91
2022/09/23 14:41:14;;;;;;;0.10;0.10;;;;;;;;;;4907056;29;20079;-91
2022/09/23 14:43:45;;;;;;;0.10;0.10;;;;;;;;;;4891279;29;20070;-91
2022/09/23 14:46:21;;;;;;;0.10;0.10;;;;;;;;;;4888893;29;20048;-91
2022/09/23 14:48:56;;;;;;;0.10;0.10;;;;;;;;;;4889012;29;20055;-91
2022/09/23 14:51:22;;;;;;;0.10;0.10;;;;;;;;;;4919770;29;20052;-91
2022/09/23 14:53:48;;;;;;;0.10;0.10;;;;;;;;;;4888720;29;20131;-91
2022/09/23 14:56:15;;;;;;;0.10;0.10;;;;;;;;;;4904987;29;20179;-91
2022/09/23 14:58:52;;;;;;;0.17;0.17;;;;;;;;;;4889494;29;20048;-87
2022/09/23 15:01:30;;;;;;;0.10;0.10;;;;;;;;;;4904795;29;20075;-88
2022/09/23 15:04:00;;;;;;;0.10;0.10;;;;;;;;;;4920226;29;20043;-90
2022/09/23 15:06:26;;;;;;;0.10;0.10;;;;;;;;;;4920386;29;20044;-88
2022/09/23 15:08:52;;;;;;;0.20;0.20;;;;;;;;;;4920151;29;20130;-91
2022/09/23 15:11:19;;;;;;;0.43;0.28;;;;;;;;;;4889074;29;20040;-90
2022/09/23 15:13:46;;;;;;;0.10;0.10;;;;;;;;;;4889877;29;20451;-92
2022/09/23 15:16:13;;;;;;;0.20;0.20;;;;;;;;;;4889028;29;20113;-90
2022/09/23 15:18:40;;;;;;;0.10;0.10;;;;;;;;;;4904341;29;20047;-90
2022/09/23 15:21:09;;;;;;;0.10;0.10;;;;;;;;;;4888585;29;20040;-90
2022/09/23 15:23:35;;;;;;;0.10;0.10;;;;;;;;;;4919342;29;20467;-89
2022/09/23 15:26:05;;;;;;;0.10;0.10;;;;;;;;;;4919599;29;20052;-91
2022/09/23 15:28:31;;;;;;;0.10;0.10;;;;;;;;;;4889139;29;20051;-88
2022/09/23 15:30:57;;;;;;;0.10;0.10;;;;;;;;;;4890110;29;20039;-89
2022/09/23 15:33:26;;;;;;;0.10;0.10;;;;;;;;;;4903660;29;20443;-89
2022/09/23 15:35:53;;;;;;;0.10;0.10;;;;;;;;;;4904148;29;20521;-90
2022/09/23 15:38:47;;;;;;;0.10;0.10;;;;;;;;;;4888715;29;20055;-94
2022/09/23 15:41:13;;;;;;;0.10;0.10;;;;;;;;;;4920839;29;20519;-94
2022/09/23 15:43:42;;;;;;;0.10;0.10;;;;;;;;;;4888317;29;20506;-90
2022/09/23 15:46:32;;;;;;;0.10;0.10;;;;;;;;;;4919272;29;20130;-92
2022/09/23 15:49:06;;;;;;;0.10;0.10;;;;;;;;;;4920389;29;20051;-93
2022/09/23 15:51:34;;;;;;;0.10;0.10;;;;;;;;;;4888597;29;20044;-91
2022/09/23 15:54:00;;;;;;;0.10;0.10;;;;;;;;;;4888758;29;20044;-91
2022/09/23 15:56:26;;;;;;;0.10;0.10;;;;;;;;;;4888407;29;20099;-91
2022/09/23 15:58:52;;;;;;;0.10;0.10;;;;;;;;;;4888870;29;20055;-93
2022/09/23 16:01:21;;;;;;;0.20;0.20;;;;;;;;;;4918225;29;20046;-92
2022/09/23 16:03:47;;;;;;;0.10;0.10;;;;;;;;;;4887583;29;20055;-93
2022/09/23 16:06:14;;;;;;;0.10;0.10;;;;;;;;;;4888239;29;20044;-91
2022/09/23 16:08:41;;;;;;;0.10;0.10;;;;;;;;;;4903618;29;20407;-93
2022/09/23 16:11:29;;;;;;;0.10;0.10;;;;;;;;;;4919062;29;20048;-92
2022/09/23 16:13:55;;;;;;;1.88;0.22;;;;;;;;;;4918665;29;20269;-91
2022/09/23 16:16:23;;;;;;;0.10;0.10;;;;;;;;;;4887548;29;20043;-92
2022/09/23 16:18:52;;;;;;;0.10;0.10;;;;;;;;;;4888360;29;20091;-89
2022/09/23 16:21:18;;;;;;;0.10;0.10;;;;;;;;;;4887523;29;20094;-90
2022/09/23 16:23:48;;;;;;;0.10;0.10;;;;;;;;;;4886969;29;20142;-90
2022/09/23 16:26:14;;;;;;;0.10;0.10;;;;;;;;;;4888210;29;20047;-87
2022/09/23 16:28:41;;;;;;;0.10;0.10;;;;;;;;;;4918288;29;20513;-88
2022/09/23 16:31:07;;;;;;;0.25;0.25;;;;;;;;;;4887120;29;20047;-88
2022/09/23 16:33:33;;;;;;;0.10;0.10;;;;;;;;;;4887341;29;20115;-88
2022/09/23 16:35:59;;;;;;;0.10;0.10;;;;;;;;;;4902794;29;20060;-88
2022/09/23 16:38:27;;;;;;;0.10;0.10;;;;;;;;;;4887062;29;20040;-90
2022/09/23 16:40:55;;;;;;;0.20;0.20;;;;;;;;;;4887546;29;20043;-89
2022/09/23 16:43:21;;;;;;;0.10;0.10;;;;;;;;;;4918328;29;20039;-88
2022/09/23 16:45:47;;;;;;;0.20;0.20;;;;;;;;;;4887498;29;20199;-89
2022/09/23 16:48:18;;;;;;;0.10;0.10;;;;;;;;;;4887015;29;20044;-89
2022/09/23 16:50:45;;;;;;;0.10;0.10;;;;;;;;;;4918091;29;20102;-89
2022/09/23 16:53:11;;;;;;;0.10;0.10;;;;;;;;;;4887060;29;20462;-89
2022/09/23 16:55:37;;;;;;;0.20;0.20;;;;;;;;;;4886979;29;20039;-89
2022/09/23 16:58:03;;;;;;;0.10;0.10;;;;;;;;;;4887398;29;20047;-91
2022/09/23 17:05:58;;;;;;;0.10;0.10;;;;;;;;;;4905076;29;20049;-91
2022/09/23 17:08:24;;;;;;;0.10;0.10;;;;;;;;;;4887157;29;20047;-91
2022/09/23 17:10:55;;;;;;;0.10;0.10;;;;;;;;;;4918577;29;20406;-91
2022/09/23 17:13:21;;;;;;;0.10;0.10;;;;;;;;;;4887073;29;20047;-89
2022/09/23 17:15:47;;;;;;;0.10;0.10;;;;;;;;;;4903140;29;20047;-90
2022/09/23 17:18:13;;;;;;;0.10;0.10;;;;;;;;;;4887065;29;20039;-90
2022/09/23 17:20:39;;;;;;;0.10;0.10;;;;;;;;;;4886721;29;20075;-90
2022/09/23 17:23:07;;;;;;;0.10;0.10;;;;;;;;;;4887118;29;20071;-90
2022/09/23 17:25:33;;;;;;;0.10;0.10;;;;;;;;;;4887242;29;20051;-89
2022/09/23 17:27:59;;;;;;;0.10;0.10;;;;;;;;;;4902775;29;20512;-89
2022/09/23 17:30:25;;;;;;;0.10;0.10;;;;;;;;;;4887026;29;20443;-88
2022/09/23 17:32:57;;;;;;;0.10;0.10;;;;;;;;;;4887026;29;20098;-94
2022/09/23 17:35:23;;;;;;;0.10;0.10;;;;;;;;;;4918963;29;20040;-91
2022/09/23 17:37:49;;;;;;;0.10;0.10;;;;;;;;;;4900084;29;20183;-89
2022/09/23 17:40:16;;;;;;;0.10;0.10;;;;;;;;;;4901777;29;20340;-89
2022/09/23 17:42:43;;;;;;;0.10;0.10;;;;;;;;;;4902305;29;20047;-90
2022/09/23 17:45:11;;;;;;;0.30;0.30;;;;;;;;;;4887428;29;20087;-88
2022/09/23 17:47:37;;;;;;;0.52;0.52;;;;;;;;;;4887228;29;20055;-87
2022/09/23 17:50:03;;;;;;;0.10;0.10;;;;;;;;;;4902360;29;20040;-88
2022/09/23 17:52:29;;;;;;;0.10;0.10;;;;;;;;;;4901475;29;20461;-88
2022/09/23 17:54:55;;;;;;;0.10;0.10;;;;;;;;;;4901783;29;20123;-87
2022/09/23 17:57:21;;;;;;;0.10;0.10;;;;;;;;;;4901578;29;20150;-89
2022/09/23 17:59:51;;;;;;;0.20;0.20;;;;;;;;;;4901762;29;20466;-89
2022/09/23 18:02:19;;;;;;;0.10;0.10;;;;;;;;;;4886808;29;20134;-90
2022/09/23 18:04:45;;;;;;;0.10;0.10;;;;;;;;;;4901303;29;20044;-90
2022/09/23 18:07:11;;;;;;;0.08;0.08;;;;;;;;;;4887253;29;20054;-89
2022/09/23 18:09:37;;;;;;;0.10;0.10;;;;;;;;;;4886100;29;20388;-89
2022/09/23 18:12:03;;;;;;;0.10;0.10;;;;;;;;;;4902079;29;20130;-89
2022/09/23 18:14:29;;;;;;;0.10;0.10;;;;;;;;;;4886549;29;20044;-88
2022/09/23 18:16:55;;;;;;;0.10;0.10;;;;;;;;;;4885975;29;20553;-90
2022/09/23 18:19:23;;;;;;;0.10;0.10;;;;;;;;;;4886026;29;20039;-92
2022/09/23 18:21:50;;;;;;;0.20;0.20;;;;;;;;;;4900983;29;20043;-91
2022/09/23 18:24:16;;;;;;;0.20;0.20;;;;;;;;;;4887085;29;20052;-90
2022/09/23 18:26:42;;;;;;;0.10;0.10;;;;;;;;;;4889026;29;20047;-90
2022/09/23 18:29:08;;;;;;;0.10;0.10;;;;;;;;;;4889283;29;20131;-92
2022/09/23 18:31:34;;;;;;;0.10;0.10;;;;;;;;;;4888973;29;20048;-90
2022/09/23 18:34:01;;;;;;;0.10;0.10;;;;;;;;;;4889315;29;20056;-90
2022/09/23 18:36:27;;;;;;;0.10;0.10;;;;;;;;;;4889269;29;20153;-90
2022/09/23 18:38:53;;;;;;;0.20;0.20;;;;;;;;;;4889032;29;20044;-89
2022/09/23 18:41:19;;;;;;;0.10;0.10;;;;;;;;;;4888718;29;20102;-89
2022/09/23 18:43:45;;;;;;;0.10;0.10;;;;;;;;;;4904564;29;20049;-90
2022/09/23 18:46:15;;;;;;;0.10;0.10;;;;;;;;;;4888911;29;20089;-89
2022/09/23 18:51:28;;;;;;;0.10;0.10;;;;;;;;;;4906853;29;20051;-90
2022/09/23 18:53:57;;;;;;;0.10;0.10;;;;;;;;;;4887170;29;20114;-89
2022/09/23 18:56:28;;;;;;;1.75;0.30;;;;;;;;;;4888984;29;20391;-90
2022/09/23 18:58:54;;;;;;;0.15;0.15;;;;;;;;;;4889062;29;20341;-89
2022/09/23 19:01:21;;;;;;;0.10;0.10;;;;;;;;;;4904499;29;20114;-90
2022/09/23 19:03:46;;;;;;;0.10;0.10;;;;;;;;;;4920120;29;20043;-89
2022/09/23 19:06:13;;;;;;;0.20;0.20;;;;;;;;;;4888693;29;20040;-90
2022/09/23 19:08:40;;;;;;;0.10;0.10;;;;;;;;;;4888719;29;20551;-90
2022/09/23 19:11:06;;;;;;;0.10;0.10;;;;;;;;;;4888735;29;20044;-89
2022/09/23 19:13:32;;;;;;;0.10;0.10;;;;;;;;;;4888237;29;20044;-89
2022/09/23 19:16:02;;;;;;;0.10;0.10;;;;;;;;;;4888684;29;20040;-88
2022/09/23 19:18:28;;;;;;;0.10;0.10;;;;;;;;;;4888462;29;20383;-86
2022/09/23 19:20:56;;;;;;;0.10;0.10;;;;;;;;;;4919225;29;20047;-88
2022/09/23 19:23:22;;;;;;;0.10;0.10;;;;;;;;;;4904163;29;20104;-88
2022/09/23 19:25:49;;;;;;;0.10;0.10;;;;;;;;;;4888206;29;20044;-88
2022/09/23 19:28:15;;;;;;;0.10;0.10;;;;;;;;;;4919599;29;20043;-87
2022/09/23 19:30:41;;;;;;;0.10;0.10;;;;;;;;;;4888133;29;20051;-88
2022/09/23 19:33:07;;;;;;;0.10;0.10;;;;;;;;;;4888172;29;20160;-87
2022/09/23 19:35:34;;;;;;;0.10;0.10;;;;;;;;;;4903587;29;20404;-88
2022/09/23 19:38:00;;;;;;;0.10;0.10;;;;;;;;;;4903606;29;20039;-85
2022/09/23 19:40:28;;;;;;;0.10;0.10;;;;;;;;;;4903753;29;20052;-85
2022/09/23 19:42:54;;;;;;;0.10;0.10;;;;;;;;;;4919621;29;20219;-86